createdAt,value
2023-05-10T00:00:11.539Z,100747.81
2023-05-10T00:02:37.852Z,100748.81
2023-05-10T00:05:04.166Z,100744.72
2023-05-10T00:07:30.447Z,100741.22
2023-05-10T00:09:56.735Z,100745.78
2023-05-10T00:12:23.806Z,100743.34
2023-05-10T00:14:50.097Z,100741.94
2023-05-10T00:17:16.377Z,100739.25
2023-05-10T00:19:42.629Z,100732.47
2023-05-10T00:22:08.887Z,100736.22
2023-05-10T00:24:35.112Z,100734.59
2023-05-10T00:27:01.357Z,100732.13
2023-05-10T00:29:27.614Z,100725.91
2023-05-10T00:31:53.874Z,100722.66
2023-05-10T00:34:20.225Z,100720.75
2023-05-10T00:36:46.607Z,100718.31
2023-05-10T00:39:14.525Z,100721.00
2023-05-10T00:41:40.772Z,100713.97
2023-05-10T00:44:07.074Z,100712.34
2023-05-10T00:46:33.522Z,100706.94
2023-05-10T00:48:59.926Z,100710.72
2023-05-10T00:51:26.389Z,100700.16
2023-05-10T00:53:52.638Z,100700.41
2023-05-10T00:56:18.933Z,100690.69
2023-05-10T00:58:45.248Z,100693.38
2023-05-10T01:01:11.871Z,100693.63
2023-05-10T01:03:38.231Z,100693.63
2023-05-10T01:06:04.497Z,100675.81
2023-05-10T01:08:30.813Z,100685.78
2023-05-10T01:10:59.294Z,100689.53
2023-05-10T01:13:25.673Z,100686.00
2023-05-10T01:15:52.038Z,100683.53
2023-05-10T01:18:18.462Z,100686.25
2023-05-10T01:20:45.297Z,100686.50
2023-05-10T01:23:11.544Z,100692.69
2023-05-10T01:25:37.861Z,100689.22
2023-05-10T01:28:04.995Z,100688.38
2023-05-10T01:30:31.238Z,100685.91
2023-05-10T01:32:57.538Z,100686.16
2023-05-10T01:35:23.910Z,100675.59
2023-05-10T01:37:50.153Z,100664.59
2023-05-10T01:40:16.614Z,100671.03
2023-05-10T01:42:43.065Z,100666.72
2023-05-10T01:45:09.333Z,100662.13
2023-05-10T01:47:35.586Z,100671.28
2023-05-10T01:50:01.850Z,100652.66
2023-05-10T01:52:28.108Z,100663.44
2023-05-10T01:54:54.870Z,100661.81
2023-05-10T01:57:21.134Z,100660.97
2023-05-10T01:59:47.463Z,100662.03
2023-05-10T02:02:13.766Z,100658.53
2023-05-10T02:04:40.021Z,100664.97
2023-05-10T02:07:06.614Z,100664.19
2023-05-10T02:09:32.899Z,100657.13
2023-05-10T02:11:59.479Z,100656.31
2023-05-10T02:14:25.820Z,100657.13
2023-05-10T02:16:52.204Z,100653.88
2023-05-10T02:19:20.284Z,100663.59
2023-05-10T02:21:46.527Z,100652.00
2023-05-10T02:24:12.796Z,100655.72
2023-05-10T02:26:39.047Z,100650.94
2023-05-10T02:29:05.841Z,100650.94
2023-05-10T02:31:32.095Z,100639.09
2023-05-10T02:33:58.356Z,100644.47
2023-05-10T02:36:24.616Z,100650.09
2023-05-10T02:38:50.900Z,100642.84
2023-05-10T02:41:17.162Z,100643.66
2023-05-10T02:43:43.432Z,100646.34
2023-05-10T02:46:09.798Z,100640.16
2023-05-10T02:48:36.700Z,100643.91
2023-05-10T02:51:02.996Z,100646.84
2023-05-10T02:53:29.223Z,100636.31
2023-05-10T02:55:55.439Z,100630.69
2023-05-10T02:58:22.350Z,100637.94
2023-05-10T03:00:48.583Z,100633.59
2023-05-10T03:03:16.845Z,100627.16
2023-05-10T03:05:43.086Z,100620.97
2023-05-10T03:08:09.356Z,100626.34
2023-05-10T03:10:35.588Z,100629.84
2023-05-10T03:13:01.934Z,100626.59
2023-05-10T03:15:28.231Z,100627.38
2023-05-10T03:17:54.496Z,100619.53
2023-05-10T03:20:20.813Z,100632.22
2023-05-10T03:22:47.054Z,100621.69
2023-05-10T03:25:13.817Z,100620.59
2023-05-10T03:27:40.148Z,100631.63
2023-05-10T03:30:06.680Z,100622.75
2023-05-10T03:32:33.211Z,100620.53
2023-05-10T03:34:59.478Z,100623.78
2023-05-10T03:37:25.722Z,100625.69
2023-05-10T03:39:53.270Z,100617.81
2023-05-10T03:42:19.556Z,100631.31
2023-05-10T03:44:45.798Z,100633.16
2023-05-10T03:47:12.041Z,100633.44
2023-05-10T03:49:38.644Z,100630.75
2023-05-10T03:52:04.940Z,100622.66
2023-05-10T03:54:31.193Z,100630.75
2023-05-10T03:56:57.446Z,100626.38
2023-05-10T03:59:23.752Z,100619.97
2023-05-10T04:01:50.024Z,100618.31
2023-05-10T04:04:17.021Z,100621.00
2023-05-10T04:06:43.375Z,100620.19
2023-05-10T04:09:09.614Z,100623.13
2023-05-10T04:11:36.909Z,100621.50
2023-05-10T04:14:03.329Z,100614.44
2023-05-10T04:16:30.771Z,100626.88
2023-05-10T04:18:57.046Z,100610.97
2023-05-10T04:21:23.288Z,100611.75
2023-05-10T04:23:49.597Z,100626.53
2023-05-10T04:26:15.816Z,100617.66
2023-05-10T04:28:42.066Z,100611.19
2023-05-10T04:31:08.361Z,100614.38
2023-05-10T04:33:34.695Z,100612.59
2023-05-10T04:36:00.934Z,100610.97
2023-05-10T04:38:27.256Z,100601.72
2023-05-10T04:40:53.521Z,100612.81
2023-05-10T04:43:19.800Z,100611.09
2023-05-10T04:45:46.075Z,100603.13
2023-05-10T04:48:13.216Z,100599.81
2023-05-10T04:50:40.327Z,100606.03
2023-05-10T04:53:06.624Z,100597.63
2023-05-10T04:55:32.869Z,100604.19
2023-05-10T04:57:59.185Z,100608.31
2023-05-10T05:00:25.434Z,100611.66
2023-05-10T05:02:51.761Z,100606.28
2023-05-10T05:05:18.033Z,100611.00
2023-05-10T05:07:44.282Z,100600.66
2023-05-10T05:10:11.105Z,100610.28
2023-05-10T05:12:37.361Z,100613.28
2023-05-10T05:15:03.664Z,100611.91
2023-05-10T05:17:29.939Z,100610.19
2023-05-10T05:19:56.231Z,100611.09
2023-05-10T05:22:23.700Z,100607.81
2023-05-10T05:24:49.974Z,100607.59
2023-05-10T05:27:16.232Z,100602.66
2023-05-10T05:29:42.568Z,100611.00
2023-05-10T05:32:10.239Z,100611.00
2023-05-10T05:34:36.655Z,100613.44
2023-05-10T05:37:02.881Z,100602.94
2023-05-10T05:39:29.153Z,100607.50
2023-05-10T05:41:55.527Z,100607.16
2023-05-10T05:44:21.853Z,100597.28
2023-05-10T05:46:48.913Z,100594.72
2023-05-10T05:52:08.874Z,100600.81
2023-05-10T05:54:35.091Z,100597.53
2023-05-10T05:57:01.617Z,100599.19
2023-05-10T05:59:27.945Z,100591.66
2023-05-10T06:01:54.228Z,100591.38
2023-05-10T06:04:20.548Z,100589.75
2023-05-10T06:06:46.916Z,100607.66
2023-05-10T06:09:13.195Z,100598.06
2023-05-10T06:11:39.467Z,100597.59
2023-05-10T06:14:05.672Z,100602.75
2023-05-10T06:16:32.370Z,100599.34
2023-05-10T06:18:58.676Z,100601.09
2023-05-10T06:21:24.965Z,100598.63
2023-05-10T06:23:51.228Z,100600.25
2023-05-10T06:26:17.550Z,100597.56
2023-05-10T06:28:43.788Z,100590.66
2023-05-10T06:31:10.059Z,100605.50
2023-05-10T06:33:36.364Z,100601.41
2023-05-10T06:36:02.643Z,100592.28
2023-05-10T06:38:29.047Z,100593.34
2023-05-10T06:40:55.282Z,100589.84
2023-05-10T06:43:21.731Z,100583.88
2023-05-10T06:45:48.067Z,100593.00
2023-05-10T06:48:14.437Z,100584.94
2023-05-10T06:50:40.804Z,100591.59
2023-05-10T06:53:07.056Z,100593.25
2023-05-10T06:55:33.409Z,100590.75
2023-05-10T06:57:59.679Z,100584.34
2023-05-10T07:00:26.018Z,100583.75
2023-05-10T07:02:52.576Z,100588.56
2023-05-10T07:05:19.133Z,100581.75
2023-05-10T07:07:45.637Z,100581.19
2023-05-10T07:10:12.912Z,100578.50
2023-05-10T07:12:39.321Z,100584.13
2023-05-10T07:15:05.655Z,100585.19
2023-05-10T07:17:32.085Z,100586.50
2023-05-10T07:19:58.468Z,100588.13
2023-05-10T07:22:24.727Z,100580.28
2023-05-10T07:24:50.989Z,100586.50
2023-05-10T07:27:17.277Z,100581.34
2023-05-10T07:29:43.584Z,100574.88
2023-05-10T07:32:09.844Z,100579.22
2023-05-10T07:34:36.121Z,100593.97
2023-05-10T07:37:02.741Z,100576.63
2023-05-10T07:39:29.099Z,100584.94
2023-05-10T07:41:55.362Z,100582.25
2023-05-10T07:44:21.595Z,100587.66
2023-05-10T07:46:47.839Z,100581.19
2023-05-10T07:49:14.368Z,100579.34
2023-05-10T07:51:40.756Z,100578.50
2023-05-10T07:54:07.208Z,100577.66
2023-05-10T07:56:33.650Z,100578.50
2023-05-10T07:58:59.920Z,100575.81
2023-05-10T08:01:26.516Z,100579.34
2023-05-10T08:03:52.848Z,100568.56
2023-05-10T08:06:19.138Z,100574.75
2023-05-10T08:08:45.462Z,100571.25
2023-05-10T08:11:11.728Z,100563.19
2023-05-10T08:13:38.105Z,100568.56
2023-05-10T08:19:07.567Z,100571.25
2023-05-10T08:21:33.956Z,100562.56
2023-05-10T08:24:00.325Z,100563.41
2023-05-10T08:26:26.599Z,100556.13
2023-05-10T08:28:52.852Z,100565.28
2023-05-10T08:31:19.165Z,100565.28
2023-05-10T08:33:45.718Z,100564.22
2023-05-10T08:36:11.968Z,100563.41
2023-05-10T08:38:38.203Z,100568.56
2023-05-10T08:41:04.445Z,100567.97
2023-05-10T08:43:30.712Z,100568.78
2023-05-10T08:45:57.079Z,100567.72
2023-05-10T08:48:23.371Z,100573.13
2023-05-10T08:50:49.608Z,100563.41
2023-05-10T08:53:15.864Z,100556.13
2023-05-10T08:55:42.139Z,100563.41
2023-05-10T08:58:08.357Z,100567.72
2023-05-10T09:00:34.694Z,100560.47
2023-05-10T09:03:01.030Z,100573.69
2023-05-10T09:05:27.324Z,100560.22
2023-05-10T09:07:53.616Z,100570.19
2023-05-10T09:10:19.943Z,100571.81
2023-05-10T09:12:46.246Z,100570.19
2023-05-10T09:15:12.519Z,100575.56
2023-05-10T09:17:40.021Z,100572.88
2023-05-10T09:20:06.268Z,100574.75
2023-05-10T09:22:32.644Z,100576.63
2023-05-10T09:24:58.961Z,100572.88
2023-05-10T09:27:25.200Z,100587.16
2023-05-10T09:29:51.466Z,100571.25
2023-05-10T09:32:17.694Z,100576.63
2023-05-10T09:34:45.080Z,100567.72
2023-05-10T09:37:11.345Z,100573.13
2023-05-10T09:39:37.612Z,100566.91
2023-05-10T09:42:03.981Z,100563.19
2023-05-10T09:44:30.234Z,100567.72
2023-05-10T09:46:56.586Z,100566.66
2023-05-10T09:49:22.824Z,100572.88
2023-05-10T09:51:49.073Z,100559.41
2023-05-10T09:54:15.300Z,100566.66
2023-05-10T09:56:41.751Z,100560.47
2023-05-10T09:59:08.038Z,100558.59
2023-05-10T10:01:34.334Z,100560.47
2023-05-10T10:04:00.633Z,100568.56
2023-05-10T10:06:30.416Z,100562.09
2023-05-10T10:08:57.020Z,100556.97
2023-05-10T10:11:23.269Z,100572.06
2023-05-10T10:13:49.571Z,100570.19
2023-05-10T10:16:15.907Z,100551.34
2023-05-10T10:18:43.570Z,100551.34
2023-05-10T10:21:09.871Z,100552.13
2023-05-10T10:23:36.804Z,100546.75
2023-05-10T10:26:03.150Z,100544.06
2023-05-10T10:28:29.422Z,100541.34
2023-05-10T10:30:55.729Z,100540.31
2023-05-10T10:35:53.306Z,100533.88
2023-05-10T10:38:19.995Z,100538.44
2023-05-10T10:40:46.201Z,100539.25
2023-05-10T10:43:12.678Z,100534.94
2023-05-10T10:45:40.181Z,100531.41
2023-05-10T10:48:07.628Z,100532.25
2023-05-10T10:50:33.906Z,100535.72
2023-05-10T10:53:00.242Z,100534.09
2023-05-10T10:55:26.621Z,100530.59
2023-05-10T10:57:52.927Z,100528.72
2023-05-10T11:00:19.347Z,100534.94
2023-05-10T11:02:45.659Z,100545.72
2023-05-10T11:05:11.910Z,100538.44
2023-05-10T11:07:38.155Z,100530.13
2023-05-10T11:10:04.414Z,100531.19
2023-05-10T11:12:30.766Z,100528.50
2023-05-10T11:14:57.061Z,100532.00
2023-05-10T11:17:23.350Z,100528.25
2023-05-10T11:19:49.697Z,100520.16
2023-05-10T11:22:16.499Z,100520.97
2023-05-10T11:24:42.759Z,100513.16
2023-05-10T11:27:08.988Z,100520.97
2023-05-10T11:29:35.411Z,100517.47
2023-05-10T11:32:01.729Z,100527.19
2023-05-10T11:34:28.037Z,100519.34
2023-05-10T11:36:54.297Z,100520.97
2023-05-10T11:39:20.723Z,100514.53
2023-05-10T11:41:47.000Z,100514.78
2023-05-10T11:44:13.259Z,100512.09
2023-05-10T11:46:39.575Z,100515.59
2023-05-10T11:49:06.129Z,100516.41
2023-05-10T11:51:32.522Z,100523.66
2023-05-10T11:53:58.804Z,100518.88
2023-05-10T11:56:25.047Z,100520.72
2023-05-10T11:58:51.331Z,100519.94
2023-05-10T12:01:17.577Z,100523.41
2023-05-10T12:03:43.925Z,100520.72
2023-05-10T12:06:10.634Z,100522.38
2023-05-10T12:08:36.889Z,100521.56
2023-05-10T12:11:03.340Z,100526.13
2023-05-10T12:13:29.596Z,100527.78
2023-05-10T12:15:55.898Z,100526.13
2023-05-10T12:18:22.296Z,100519.69
2023-05-10T12:20:48.611Z,100531.63
2023-05-10T12:23:15.035Z,100535.97
2023-05-10T12:25:41.452Z,100529.53
2023-05-10T12:28:07.736Z,100531.75
2023-05-10T12:30:33.998Z,100530.03
2023-05-10T12:33:00.391Z,100527.59
2023-05-10T12:35:26.688Z,100526.03
2023-05-10T12:37:52.951Z,100529.88
2023-05-10T12:40:19.417Z,100525.88
2023-05-10T12:42:45.885Z,100529.97
2023-05-10T12:45:12.205Z,100538.59
2023-05-10T12:47:38.484Z,100530.03
2023-05-10T12:50:04.772Z,100528.97
2023-05-10T12:52:31.013Z,100529.81
2023-05-10T12:54:57.266Z,100527.66
2023-05-10T12:57:23.801Z,100523.94
2023-05-10T12:59:50.035Z,100529.31
2023-05-10T13:02:16.290Z,100539.03
2023-05-10T13:04:42.866Z,100530.13
2023-05-10T13:07:09.226Z,100547.13
2023-05-10T13:09:35.495Z,100533.66
2023-05-10T13:12:01.932Z,100539.03
2023-05-10T13:14:28.195Z,100533.66
2023-05-10T13:16:54.484Z,100537.13
2023-05-10T13:19:20.885Z,100537.13
2023-05-10T13:21:47.154Z,100529.06
2023-05-10T13:24:13.384Z,100521.78
2023-05-10T13:26:39.613Z,100522.03
2023-05-10T13:29:06.438Z,100517.47
2023-05-10T13:31:32.766Z,100517.72
2023-05-10T13:33:59.094Z,100525.78
2023-05-10T13:36:25.444Z,100524.41
2023-05-10T13:38:51.703Z,100519.03
2023-05-10T13:41:18.054Z,100512.00
2023-05-10T13:43:44.582Z,100512.00
2023-05-10T13:46:10.896Z,100510.09
2023-05-10T13:48:38.779Z,100501.22
2023-05-10T13:51:05.533Z,100504.97
2023-05-10T13:53:31.780Z,100500.41
2023-05-10T13:55:58.430Z,100511.19
2023-05-10T13:58:24.692Z,100511.19
2023-05-10T14:00:50.961Z,100508.72
2023-05-10T14:03:17.615Z,100508.72
2023-05-10T14:05:43.952Z,100512.47
2023-05-10T14:08:10.241Z,100514.34
2023-05-10T14:10:36.550Z,100510.03
2023-05-10T14:13:02.833Z,100515.97
2023-05-10T14:15:29.087Z,100511.66
2023-05-10T14:17:55.389Z,100512.47
2023-05-10T14:20:23.360Z,100511.66
2023-05-10T14:22:49.602Z,100512.72
2023-05-10T14:25:16.234Z,100515.41
2023-05-10T14:27:42.724Z,100496.56
2023-05-10T14:30:08.980Z,100513.78
2023-05-10T14:32:35.224Z,100501.94
2023-05-10T14:35:01.683Z,100498.41
2023-05-10T14:37:28.660Z,100504.88
2023-05-10T14:39:54.977Z,100501.94
2023-05-10T14:42:21.230Z,100499.25
2023-05-10T14:44:47.475Z,100488.72
2023-05-10T14:47:13.783Z,100492.22
2023-05-10T14:49:40.066Z,100494.94
2023-05-10T14:52:06.328Z,100497.63
2023-05-10T14:54:32.555Z,100495.72
2023-05-10T14:56:58.849Z,100493.84
2023-05-10T14:59:25.159Z,100492.22
2023-05-10T15:01:52.024Z,100496.00
2023-05-10T15:04:19.881Z,100502.19
2023-05-10T15:06:46.526Z,100503.00
2023-05-10T15:09:12.882Z,100502.19
2023-05-10T15:11:39.274Z,100503.00
2023-05-10T15:14:05.782Z,100497.63
2023-05-10T15:16:35.045Z,100503.00
2023-05-10T15:19:02.229Z,100507.56
2023-05-10T15:21:29.023Z,100515.66
2023-05-10T15:23:56.385Z,100504.09
2023-05-10T15:26:22.645Z,100506.78
2023-05-10T15:28:48.973Z,100511.09
2023-05-10T15:31:18.534Z,100505.72
2023-05-10T15:33:45.005Z,100515.41
2023-05-10T15:36:11.239Z,100512.72
2023-05-10T15:38:39.126Z,100519.97
2023-05-10T15:41:05.385Z,100511.91
2023-05-10T15:43:31.773Z,100510.03
2023-05-10T15:45:58.003Z,100511.66
2023-05-10T15:48:24.276Z,100508.97
2023-05-10T15:50:50.507Z,100507.09
2023-05-10T15:53:16.820Z,100501.72
2023-05-10T15:55:43.050Z,100508.97
2023-05-10T15:58:09.313Z,100507.09
2023-05-10T16:00:35.717Z,100506.03
2023-05-10T16:03:02.271Z,100512.47
2023-05-10T16:05:29.098Z,100516.81
2023-05-10T16:07:55.357Z,100507.66
2023-05-10T16:10:21.669Z,100507.91
2023-05-10T16:12:47.936Z,100511.19
2023-05-10T16:15:14.195Z,100507.66
2023-05-10T16:17:40.503Z,100510.34
2023-05-10T16:20:06.957Z,100505.78
2023-05-10T16:22:33.228Z,100513.03
2023-05-10T16:25:00.383Z,100516.56
2023-05-10T16:27:26.647Z,100517.41
2023-05-10T16:29:52.916Z,100518.19
2023-05-10T16:32:19.122Z,100521.72
2023-05-10T16:34:45.522Z,100527.09
2023-05-10T16:37:11.777Z,100522.50
2023-05-10T16:39:38.121Z,100526.03
2023-05-10T16:42:04.507Z,100530.34
2023-05-10T16:44:30.787Z,100533.88
2023-05-10T16:46:57.294Z,100533.06
2023-05-10T16:49:25.319Z,100538.44
2023-05-10T16:51:52.491Z,100536.59
2023-05-10T16:54:19.607Z,100544.66
2023-05-10T16:56:46.205Z,100543.59
2023-05-10T16:59:12.507Z,100540.91
2023-05-10T17:01:38.803Z,100551.69
2023-05-10T17:04:05.182Z,100556.28
2023-05-10T17:06:31.465Z,100546.28
2023-05-10T17:08:57.834Z,100550.88
2023-05-10T17:11:24.204Z,100558.69
2023-05-10T17:13:50.617Z,100564.09
2023-05-10T17:16:17.294Z,100566.00
2023-05-10T17:18:43.745Z,100566.00
2023-05-10T17:21:10.176Z,100561.41
2023-05-10T17:23:36.406Z,100569.47
2023-05-10T17:26:04.443Z,100574.88
2023-05-10T17:28:30.904Z,100572.19
2023-05-10T17:30:57.150Z,100576.53
2023-05-10T17:33:23.440Z,100579.22
2023-05-10T17:35:49.680Z,100579.47
2023-05-10T17:38:16.021Z,100592.69
2023-05-10T17:40:42.407Z,100588.34
2023-05-10T17:43:08.653Z,100590.25
2023-05-10T17:45:34.954Z,100588.34
2023-05-10T17:48:01.335Z,100591.03
2023-05-10T17:50:27.729Z,100600.78
2023-05-10T17:52:53.959Z,100599.13
2023-05-10T17:55:20.255Z,100599.97
2023-05-10T17:57:46.473Z,100599.97
2023-05-10T18:00:12.704Z,100606.19
2023-05-10T18:02:39.011Z,100608.88
2023-05-10T18:05:05.580Z,100609.66
2023-05-10T18:07:33.167Z,100623.97
2023-05-10T18:09:59.602Z,100615.06
2023-05-10T18:12:26.065Z,100621.28
2023-05-10T18:14:52.341Z,100632.06
2023-05-10T18:17:18.600Z,100631.25
2023-05-10T18:19:44.871Z,100633.94
2023-05-10T18:22:11.304Z,100644.72
2023-05-10T18:24:41.101Z,100642.03
2023-05-10T18:27:07.517Z,100642.84
2023-05-10T18:29:33.787Z,100644.72
2023-05-10T18:32:00.145Z,100654.44
2023-05-10T18:34:26.542Z,100659.81
2023-05-10T18:36:52.770Z,100657.41
2023-05-10T18:39:19.202Z,100667.09
2023-05-10T18:41:45.442Z,100669.81
2023-05-10T18:44:11.661Z,100669.81
2023-05-10T18:46:38.111Z,100678.69
2023-05-10T18:49:04.420Z,100668.19
2023-05-10T18:51:30.688Z,100683.53
2023-05-10T18:53:56.952Z,100676.25
2023-05-10T18:56:23.199Z,100681.66
2023-05-10T18:58:49.470Z,100685.16
2023-05-10T19:01:15.768Z,100694.31
2023-05-10T19:03:42.048Z,100700.53
2023-05-10T19:06:08.323Z,100699.69
2023-05-10T19:08:34.581Z,100702.38
2023-05-10T19:11:00.895Z,100704.00
2023-05-10T19:13:27.169Z,100700.53
2023-05-10T19:15:53.491Z,100701.31
2023-05-10T19:18:21.471Z,100709.41
2023-05-10T19:20:47.857Z,100719.13
2023-05-10T19:23:15.423Z,100714.81
2023-05-10T19:25:43.047Z,100720.19
2023-05-10T19:28:10.853Z,100718.31
2023-05-10T19:30:37.126Z,100723.94
2023-05-10T19:33:04.393Z,100725.59
2023-05-10T19:35:30.829Z,100723.72
2023-05-10T19:37:57.196Z,100729.91
2023-05-10T19:40:23.438Z,100734.50
2023-05-10T19:42:49.740Z,100733.44
2023-05-10T19:45:16.595Z,100737.19
2023-05-10T19:47:45.612Z,100740.69
2023-05-10T19:50:11.935Z,100738.00
2023-05-10T19:52:38.235Z,100736.13
2023-05-10T19:55:04.478Z,100740.69
2023-05-10T19:57:31.054Z,100738.81
2023-05-10T19:59:57.274Z,100738.81
2023-05-10T20:02:26.015Z,100744.22
2023-05-10T20:04:52.361Z,100743.16
2023-05-10T20:07:18.622Z,100748.53
2023-05-10T20:09:44.870Z,100743.16
2023-05-10T20:12:11.270Z,100748.53
2023-05-10T20:14:37.556Z,100745.03
2023-05-10T20:17:03.863Z,100747.75
2023-05-10T20:19:31.745Z,100749.59
2023-05-10T20:21:58.010Z,100757.47
2023-05-10T20:24:24.242Z,100758.53
2023-05-10T20:26:50.519Z,100753.94
2023-05-10T20:29:16.945Z,100760.16
2023-05-10T20:31:43.532Z,100760.16
2023-05-10T20:34:09.780Z,100762.00
2023-05-10T20:36:36.115Z,100763.91
2023-05-10T20:39:02.407Z,100766.59
2023-05-10T20:41:28.640Z,100764.72
2023-05-10T20:43:55.206Z,100769.06
2023-05-10T20:46:21.698Z,100771.16
2023-05-10T20:48:48.013Z,100767.41
2023-05-10T20:51:14.244Z,100768.25
2023-05-10T20:53:41.101Z,100782.78
2023-05-10T20:56:08.127Z,100778.19
2023-05-10T20:58:34.459Z,100775.50
2023-05-10T21:01:00.794Z,100775.50
2023-05-10T21:03:28.689Z,100778.19
2023-05-10T21:05:55.073Z,100778.19
2023-05-10T21:08:21.310Z,100780.09
2023-05-10T21:10:47.564Z,100779.25
2023-05-10T21:13:13.816Z,100779.25
2023-05-10T21:15:40.090Z,100774.69
2023-05-10T21:18:06.441Z,100779.25
2023-05-10T21:20:32.796Z,100778.44
2023-05-10T21:22:59.038Z,100784.66
2023-05-10T21:25:25.326Z,100790.03
2023-05-10T21:27:51.623Z,100780.09
2023-05-10T21:30:18.340Z,100779.25
2023-05-10T21:32:44.749Z,100783.00
2023-05-10T21:35:11.041Z,100781.94
2023-05-10T21:37:37.285Z,100792.75
2023-05-10T21:40:03.650Z,100790.03
2023-05-10T21:42:29.890Z,100781.13
2023-05-10T21:44:56.155Z,100783.81
2023-05-10T21:47:22.990Z,100791.66
2023-05-10T21:49:49.373Z,100789.22
2023-05-10T21:52:15.667Z,100790.28
2023-05-10T21:54:43.629Z,100789.22
2023-05-10T21:57:09.981Z,100792.97
2023-05-10T21:59:36.288Z,100800.81
2023-05-10T22:02:02.578Z,100794.59
2023-05-10T22:04:28.889Z,100803.53
2023-05-10T22:06:55.156Z,100795.44
2023-05-10T22:09:21.412Z,100795.66
2023-05-10T22:11:47.686Z,100802.69
2023-05-10T22:14:13.983Z,100800.00
2023-05-10T22:16:40.317Z,100800.00
2023-05-10T22:19:06.752Z,100800.81
2023-05-10T22:21:33.131Z,100798.13
2023-05-10T22:23:59.371Z,100797.28
2023-05-10T22:26:25.652Z,100800.81
2023-05-10T22:28:52.604Z,100800.00
2023-05-10T22:31:18.912Z,100801.88
2023-05-10T22:33:46.023Z,100800.00
2023-05-10T22:36:12.292Z,100800.00
2023-05-10T22:38:40.613Z,100807.28
2023-05-10T22:41:08.566Z,100804.59
2023-05-10T22:43:34.798Z,100805.38
2023-05-10T22:46:01.083Z,100801.88
2023-05-10T22:48:27.442Z,100804.59
2023-05-10T22:50:53.689Z,100805.38
2023-05-10T22:53:19.926Z,100801.06
2023-05-10T22:55:46.170Z,100809.97
2023-05-10T22:58:12.399Z,100802.94
2023-05-10T23:00:39.134Z,100814.75
2023-05-10T23:03:05.920Z,100814.53
2023-05-10T23:05:32.245Z,100818.88
2023-05-10T23:08:00.541Z,100814.53
2023-05-10T23:10:26.812Z,100819.94
2023-05-10T23:12:53.038Z,100815.38
2023-05-10T23:15:19.260Z,100822.63
2023-05-10T23:17:45.535Z,100812.66
2023-05-10T23:20:12.575Z,100818.06
2023-05-10T23:22:39.778Z,100816.44
2023-05-10T23:25:06.652Z,100828.84
2023-05-10T23:27:32.892Z,100823.44
2023-05-10T23:29:59.133Z,100826.16
2023-05-10T23:32:26.935Z,100822.63
2023-05-10T23:34:53.207Z,100826.16
2023-05-10T23:37:19.578Z,100821.81
2023-05-10T23:39:45.943Z,100813.72
2023-05-10T23:42:12.211Z,100821.81
2023-05-10T23:44:38.453Z,100819.94
2023-05-10T23:47:04.730Z,100814.53
2023-05-10T23:49:30.975Z,100808.34
2023-05-10T23:51:59.267Z,100824.53
2023-05-10T23:54:25.623Z,100819.13
2023-05-10T23:56:51.894Z,100814.53
2023-05-10T23:59:18.975Z,100818.28
